createdAt,value
2022-12-11T00:02:01.664Z,43.30
2022-12-11T00:04:29.434Z,41.80
2022-12-11T00:06:57.234Z,41.00
2022-12-11T00:09:24.968Z,39.30
2022-12-11T00:11:52.715Z,40.50
2022-12-11T00:14:20.441Z,41.30
2022-12-11T00:16:49.256Z,39.90
2022-12-11T00:19:17.126Z,40.30
2022-12-11T00:21:45.761Z,39.60
2022-12-11T00:24:13.397Z,40.10
2022-12-11T00:26:41.313Z,41.60
2022-12-11T00:29:14.321Z,40.10
2022-12-11T00:31:42.436Z,39.20
2022-12-11T00:34:11.998Z,40.90
2022-12-11T00:36:39.965Z,40.60
2022-12-11T00:39:08.094Z,42.00
2022-12-11T00:41:35.805Z,40.50
2022-12-11T00:44:03.681Z,40.90
2022-12-11T00:46:31.537Z,41.30
2022-12-11T00:48:59.177Z,41.30
2022-12-11T00:51:26.933Z,41.50
2022-12-11T00:53:54.648Z,41.70
2022-12-11T00:56:23.561Z,43.60
2022-12-11T00:58:51.907Z,41.40
2022-12-11T01:01:22.322Z,42.50
2022-12-11T01:03:50.396Z,42.40
2022-12-11T01:06:20.847Z,40.90
2022-12-11T01:08:48.626Z,42.40
2022-12-11T01:11:17.220Z,41.40
2022-12-11T01:13:44.963Z,38.80
2022-12-11T01:16:14.702Z,40.70
2022-12-11T01:18:42.561Z,40.10
2022-12-11T01:21:12.582Z,40.10
2022-12-11T01:23:40.334Z,39.30
2022-12-11T01:26:10.080Z,40.00
2022-12-11T01:28:38.021Z,41.90
2022-12-11T01:31:13.973Z,41.10
2022-12-11T01:33:41.800Z,40.50
2022-12-11T01:36:15.919Z,40.20
2022-12-11T01:38:45.077Z,40.30
2022-12-11T01:41:13.022Z,41.30
2022-12-11T01:44:05.460Z,42.10
2022-12-11T01:46:36.751Z,43.10
2022-12-11T01:49:07.747Z,43.30
2022-12-11T01:52:01.288Z,47.00
2022-12-11T01:54:29.781Z,46.50
2022-12-11T01:57:00.559Z,47.40
2022-12-11T01:59:29.808Z,48.10
2022-12-11T02:02:07.451Z,48.00
2022-12-11T02:04:36.711Z,50.30
2022-12-11T02:07:04.429Z,48.40
2022-12-11T02:09:36.345Z,49.50
2022-12-11T02:12:19.873Z,48.30
2022-12-11T02:14:51.444Z,46.60
2022-12-11T02:17:36.194Z,46.50
2022-12-11T02:20:20.432Z,43.70
2022-12-11T02:23:24.432Z,42.60
2022-12-11T02:26:14.464Z,42.10
2022-12-11T02:28:47.294Z,41.60
2022-12-11T02:31:26.504Z,43.10
2022-12-11T02:34:05.132Z,43.80
2022-12-11T02:36:36.185Z,43.80
2022-12-11T02:39:05.790Z,43.20
2022-12-11T02:41:34.206Z,43.50
2022-12-11T02:44:03.295Z,41.40
2022-12-11T02:46:32.629Z,41.70
2022-12-11T02:49:00.916Z,40.90
2022-12-11T02:51:32.306Z,38.40
2022-12-11T02:54:00.738Z,39.70
2022-12-11T02:57:01.920Z,40.50
2022-12-11T02:59:34.994Z,40.70
2022-12-11T03:02:03.743Z,39.10
2022-12-11T03:04:32.063Z,40.60
2022-12-11T03:07:12.008Z,40.20
2022-12-11T03:09:44.122Z,38.50
2022-12-11T03:12:15.507Z,38.60
2022-12-11T03:14:43.812Z,38.70
2022-12-11T03:17:18.331Z,38.10
2022-12-11T03:20:07.840Z,39.00
2022-12-11T03:22:47.607Z,38.70
2022-12-11T03:25:34.894Z,36.10
2022-12-11T03:28:07.878Z,36.50
2022-12-11T03:30:36.446Z,38.30
2022-12-11T03:33:07.532Z,38.20
2022-12-11T03:35:45.134Z,36.20
2022-12-11T03:38:16.552Z,37.00
2022-12-11T03:40:46.758Z,37.00
2022-12-11T03:43:15.300Z,36.50
2022-12-11T03:45:43.572Z,37.10
2022-12-11T03:48:12.006Z,35.60
2022-12-11T03:50:40.492Z,35.30
2022-12-11T03:53:08.512Z,34.80
2022-12-11T03:55:37.547Z,36.10
2022-12-11T03:58:05.187Z,37.20
2022-12-11T04:00:33.039Z,36.10
2022-12-11T04:03:13.955Z,37.70
2022-12-11T04:05:47.504Z,37.50
2022-12-11T04:08:16.151Z,36.40
2022-12-11T04:10:44.234Z,36.60
2022-12-11T04:13:12.196Z,37.80
2022-12-11T04:15:41.066Z,36.10
2022-12-11T04:18:28.624Z,37.10
2022-12-11T04:21:15.085Z,37.20
2022-12-11T04:24:06.010Z,38.10
2022-12-11T04:26:33.707Z,38.10
2022-12-11T04:29:01.388Z,37.70
2022-12-11T04:31:30.091Z,36.70
2022-12-11T04:33:58.149Z,36.70
2022-12-11T04:36:25.962Z,38.10
2022-12-11T04:38:53.685Z,37.90
2022-12-11T04:41:21.355Z,39.90
2022-12-11T04:43:49.067Z,39.40
2022-12-11T04:46:20.134Z,41.40
2022-12-11T04:48:53.870Z,41.00
2022-12-11T04:51:24.964Z,40.60
2022-12-11T04:53:52.942Z,44.30
2022-12-11T04:56:21.441Z,46.90
2022-12-11T04:58:49.377Z,47.40
2022-12-11T05:01:20.193Z,46.80
2022-12-11T05:03:48.231Z,46.00
2022-12-11T05:06:16.198Z,46.20
2022-12-11T05:08:45.243Z,46.40
2022-12-11T05:11:14.990Z,45.50
2022-12-11T05:13:43.749Z,45.40
2022-12-11T05:16:14.748Z,45.10
2022-12-11T05:18:42.936Z,45.20
2022-12-11T05:21:12.627Z,44.20
2022-12-11T05:23:40.892Z,45.90
2022-12-11T05:26:12.583Z,45.50
2022-12-11T05:28:41.040Z,44.60
2022-12-11T05:31:13.378Z,42.10
2022-12-11T05:33:41.753Z,43.10
2022-12-11T05:36:10.731Z,41.20
2022-12-11T05:38:38.439Z,41.80
2022-12-11T05:41:06.825Z,41.30
2022-12-11T05:43:36.401Z,41.10
2022-12-11T05:46:08.955Z,42.10
2022-12-11T05:48:37.125Z,41.90
2022-12-11T05:51:06.131Z,41.00
2022-12-11T05:53:35.181Z,41.20
2022-12-11T05:56:24.883Z,41.90
2022-12-11T05:58:53.513Z,42.90
2022-12-11T06:01:25.023Z,43.10
2022-12-11T06:03:53.799Z,44.40
2022-12-11T06:06:24.946Z,44.20
2022-12-11T06:08:54.045Z,43.80
2022-12-11T06:11:24.305Z,43.90
2022-12-11T06:13:53.023Z,45.20
2022-12-11T06:16:21.802Z,43.00
2022-12-11T06:18:49.525Z,44.60
2022-12-11T06:21:23.271Z,44.90
2022-12-11T06:23:52.637Z,43.90
2022-12-11T06:26:21.275Z,45.50
2022-12-11T06:28:49.881Z,45.30
2022-12-11T06:31:18.252Z,44.50
2022-12-11T06:33:46.443Z,43.50
2022-12-11T06:36:20.472Z,44.20
2022-12-11T06:38:48.561Z,43.60
2022-12-11T06:41:16.718Z,43.40
2022-12-11T06:43:44.398Z,42.80
2022-12-11T06:46:14.872Z,41.90
2022-12-11T06:48:43.309Z,41.20
2022-12-11T06:51:17.358Z,43.10
2022-12-11T06:53:45.509Z,42.90
2022-12-11T06:56:15.397Z,43.00
2022-12-11T06:58:44.076Z,40.00
2022-12-11T07:01:26.232Z,38.70
2022-12-11T07:03:55.332Z,39.60
2022-12-11T07:06:23.928Z,40.10
2022-12-11T07:08:51.678Z,40.60
2022-12-11T07:11:20.330Z,39.50
2022-12-11T07:13:48.648Z,39.40
2022-12-11T07:16:17.580Z,39.10
2022-12-11T07:18:50.239Z,38.40
2022-12-11T07:21:18.792Z,37.70
2022-12-11T07:23:47.903Z,37.10
2022-12-11T07:26:17.884Z,40.10
2022-12-11T07:28:45.542Z,40.50
2022-12-11T07:31:15.653Z,38.80
2022-12-11T07:33:43.822Z,38.70
2022-12-11T07:36:12.900Z,38.90
2022-12-11T07:38:41.035Z,38.30
2022-12-11T07:41:11.664Z,38.80
2022-12-11T07:43:39.526Z,40.70
2022-12-11T07:46:10.819Z,42.50
2022-12-11T07:48:40.171Z,45.50
2022-12-11T07:51:14.924Z,43.80
2022-12-11T07:53:46.158Z,44.60
2022-12-11T07:56:15.642Z,44.10
2022-12-11T07:58:44.087Z,41.00
2022-12-11T08:01:21.484Z,41.20
2022-12-11T08:03:50.665Z,41.70
2022-12-11T08:06:19.015Z,43.10
2022-12-11T08:08:47.557Z,42.80
2022-12-11T08:11:15.447Z,42.50
2022-12-11T08:13:43.695Z,44.30
2022-12-11T08:16:13.401Z,42.80
2022-12-11T08:18:42.513Z,41.60
2022-12-11T08:21:29.299Z,40.40
2022-12-11T08:23:57.040Z,39.80
2022-12-11T08:26:29.983Z,39.60
2022-12-11T08:28:58.587Z,39.80
2022-12-11T08:31:26.670Z,41.50
2022-12-11T08:33:55.800Z,41.20
2022-12-11T08:36:23.695Z,38.80
2022-12-11T08:38:51.805Z,38.70
2022-12-11T08:41:22.362Z,38.30
2022-12-11T08:43:54.788Z,38.40
2022-12-11T08:46:24.846Z,37.30
2022-12-11T08:48:53.245Z,36.60
2022-12-11T08:51:23.570Z,36.30
2022-12-11T08:53:51.950Z,38.90
2022-12-11T08:56:21.497Z,39.50
2022-12-11T08:58:49.323Z,38.50
2022-12-11T09:01:21.465Z,40.30
2022-12-11T09:03:50.689Z,40.50
2022-12-11T09:06:21.087Z,42.60
2022-12-11T09:08:52.957Z,42.60
2022-12-11T09:11:27.359Z,43.90
2022-12-11T09:13:55.708Z,42.50
2022-12-11T09:16:25.300Z,41.80
2022-12-11T09:18:55.508Z,39.30
2022-12-11T09:21:26.203Z,39.50
2022-12-11T09:23:56.357Z,38.60
2022-12-11T09:26:24.608Z,40.30
2022-12-11T09:28:53.475Z,37.80
2022-12-11T09:31:24.804Z,35.30
2022-12-11T09:33:56.458Z,35.80
2022-12-11T09:36:24.991Z,36.90
2022-12-11T09:38:53.752Z,35.90
2022-12-11T09:41:21.719Z,35.00
2022-12-11T09:44:03.014Z,36.50
2022-12-11T09:46:34.174Z,36.10
2022-12-11T09:49:04.149Z,36.70
2022-12-11T09:52:00.261Z,37.30
2022-12-11T09:54:28.206Z,37.80
2022-12-11T09:57:10.229Z,39.20
2022-12-11T09:59:53.345Z,38.50
2022-12-11T10:02:23.432Z,37.00
2022-12-11T10:05:13.917Z,39.50
2022-12-11T10:07:53.010Z,39.90
2022-12-11T10:10:39.295Z,40.20
2022-12-11T10:13:46.178Z,40.90
2022-12-11T10:16:24.290Z,40.70
2022-12-11T10:18:52.316Z,42.30
2022-12-11T10:21:20.378Z,42.40
2022-12-11T10:23:55.011Z,41.80
2022-12-11T10:26:23.847Z,40.60
2022-12-11T10:28:52.154Z,42.30
2022-12-11T10:31:27.728Z,41.20
2022-12-11T10:34:02.033Z,39.90
2022-12-11T10:36:32.397Z,41.70
2022-12-11T10:39:00.443Z,43.00
2022-12-11T10:41:39.690Z,40.40
2022-12-11T10:44:31.294Z,38.50
2022-12-11T10:47:10.856Z,34.40
2022-12-11T10:49:44.066Z,33.20
2022-12-11T10:52:22.379Z,33.60
2022-12-11T10:55:10.385Z,33.00
2022-12-11T10:57:39.290Z,32.20
2022-12-11T11:00:09.715Z,31.40
2022-12-11T11:02:40.266Z,33.20
2022-12-11T11:05:25.809Z,34.00
2022-12-11T11:08:14.874Z,33.00
2022-12-11T11:11:00.762Z,31.20
2022-12-11T11:13:30.648Z,32.20
2022-12-11T11:16:06.984Z,31.80
2022-12-11T11:18:36.969Z,30.40
2022-12-11T11:21:05.586Z,31.20
2022-12-11T11:23:34.344Z,31.60
2022-12-11T11:26:07.403Z,30.90
2022-12-11T11:28:37.989Z,30.20
2022-12-11T11:31:09.090Z,28.90
2022-12-11T11:33:38.271Z,29.60
2022-12-11T11:36:07.962Z,29.50
2022-12-11T11:38:43.652Z,29.10
2022-12-11T11:41:25.868Z,29.40
2022-12-11T11:43:58.409Z,28.90
2022-12-11T11:46:28.151Z,28.30
2022-12-11T11:49:03.946Z,26.20
2022-12-11T11:51:39.106Z,25.40
2022-12-11T11:54:31.128Z,25.60
2022-12-11T11:57:00.587Z,26.80
2022-12-11T11:59:35.036Z,26.40
2022-12-11T12:02:02.956Z,24.80
2022-12-11T12:04:35.098Z,25.20
2022-12-11T12:07:24.882Z,27.20
2022-12-11T12:10:03.867Z,26.00
2022-12-11T12:13:10.858Z,27.70
2022-12-11T12:15:56.938Z,29.30
2022-12-11T12:18:35.105Z,29.50
2022-12-11T12:21:14.793Z,28.10
2022-12-11T12:24:06.747Z,28.30
2022-12-11T12:26:41.407Z,28.90
2022-12-11T12:29:22.640Z,25.40
2022-12-11T12:32:09.581Z,27.00
2022-12-11T12:35:02.237Z,27.00
2022-12-11T12:37:30.443Z,25.30
2022-12-11T12:40:23.621Z,27.60
2022-12-11T12:42:57.451Z,28.20
2022-12-11T12:45:40.389Z,28.50
2022-12-11T12:48:09.351Z,30.00
2022-12-11T12:50:48.689Z,28.90
2022-12-11T12:53:19.885Z,28.90
2022-12-11T12:55:48.841Z,29.60
2022-12-11T12:58:35.525Z,30.40
2022-12-11T13:01:12.571Z,43.30
2022-12-11T13:04:04.199Z,124.60
2022-12-11T13:06:43.383Z,47.10
2022-12-11T13:09:18.622Z,44.30
2022-12-11T13:11:50.130Z,40.70
2022-12-11T13:14:17.828Z,39.30
2022-12-11T13:16:50.509Z,43.80
2022-12-11T13:19:27.096Z,34.90
2022-12-11T13:22:14.930Z,33.60
2022-12-11T13:24:52.833Z,32.80
2022-12-11T13:27:27.448Z,33.00
2022-12-11T13:30:20.108Z,33.00
2022-12-11T13:33:03.476Z,38.00
2022-12-11T13:35:32.501Z,38.20
2022-12-11T13:38:07.137Z,36.60
2022-12-11T13:40:43.178Z,35.80
2022-12-11T13:43:21.034Z,32.00
2022-12-11T13:45:50.949Z,28.30
2022-12-11T13:48:38.499Z,28.50
2022-12-11T13:51:06.913Z,28.60
2022-12-11T13:53:34.775Z,31.50
2022-12-11T13:56:06.180Z,30.70
2022-12-11T13:58:35.636Z,30.20
2022-12-11T14:01:13.362Z,30.90
2022-12-11T14:03:57.397Z,30.00
2022-12-11T14:06:26.309Z,27.20
2022-12-11T14:08:57.171Z,26.70
2022-12-11T14:11:36.271Z,26.10
2022-12-11T14:14:06.962Z,31.00
2022-12-11T14:16:35.029Z,28.30
2022-12-11T14:19:05.731Z,29.70
2022-12-11T14:21:33.675Z,31.60
2022-12-11T14:24:03.770Z,30.10
2022-12-11T14:26:34.317Z,30.10
2022-12-11T14:29:03.093Z,28.70
2022-12-11T14:31:40.498Z,27.60
2022-12-11T14:34:40.204Z,29.20
2022-12-11T14:37:08.263Z,31.90
2022-12-11T14:40:10.006Z,30.60
2022-12-11T14:42:45.983Z,29.80
2022-12-11T14:45:21.106Z,28.80
2022-12-11T14:47:49.373Z,29.90
2022-12-11T14:50:44.352Z,37.10
2022-12-11T14:53:18.883Z,36.10
2022-12-11T14:55:48.337Z,33.80
2022-12-11T14:58:20.484Z,34.90
2022-12-11T15:01:03.629Z,43.40
2022-12-11T15:03:37.039Z,40.50
2022-12-11T15:06:33.794Z,44.10
2022-12-11T15:09:20.676Z,43.40
2022-12-11T15:11:50.211Z,46.10
2022-12-11T15:14:22.535Z,44.30
2022-12-11T15:16:52.046Z,44.50
2022-12-11T15:19:23.429Z,71.70
2022-12-11T15:21:51.523Z,88.20
2022-12-11T15:24:44.275Z,78.30
2022-12-11T15:27:24.410Z,37.80
2022-12-11T15:29:52.278Z,46.20
2022-12-11T15:32:21.879Z,48.20
2022-12-11T15:35:00.234Z,43.80
2022-12-11T15:37:31.653Z,41.20
2022-12-11T15:40:01.377Z,60.30
2022-12-11T15:42:32.767Z,57.10
2022-12-11T15:45:01.018Z,64.20
2022-12-11T15:47:31.101Z,49.80
2022-12-11T15:50:01.939Z,50.70
2022-12-11T15:52:30.036Z,40.70
2022-12-11T15:54:57.746Z,45.70
2022-12-11T15:57:25.737Z,37.10
2022-12-11T15:59:54.993Z,38.80
2022-12-11T16:02:24.430Z,38.10
2022-12-11T16:04:52.447Z,41.50
2022-12-11T16:07:23.160Z,39.10
2022-12-11T16:09:51.781Z,41.60
2022-12-11T16:12:20.447Z,37.80
2022-12-11T16:14:48.287Z,39.00
2022-12-11T16:17:16.041Z,39.90
2022-12-11T16:19:44.702Z,44.10
2022-12-11T16:22:13.838Z,45.20
2022-12-11T16:24:41.984Z,41.10
2022-12-11T16:27:10.003Z,42.70
2022-12-11T16:29:40.121Z,42.10
2022-12-11T16:32:08.746Z,39.40
2022-12-11T16:34:37.678Z,39.70
2022-12-11T16:37:07.441Z,39.20
2022-12-11T16:39:37.297Z,64.30
2022-12-11T16:42:06.357Z,77.40
2022-12-11T16:44:35.717Z,69.70
2022-12-11T16:47:05.190Z,77.20
2022-12-11T16:49:33.209Z,62.20
2022-12-11T16:52:01.446Z,61.00
2022-12-11T16:54:29.371Z,46.00
2022-12-11T16:56:57.197Z,43.50
2022-12-11T16:59:25.124Z,43.80
2022-12-11T17:01:52.968Z,42.60
2022-12-11T17:04:20.900Z,47.20
2022-12-11T17:06:48.770Z,46.20
2022-12-11T17:09:16.737Z,47.60
2022-12-11T17:11:44.707Z,46.40
2022-12-11T17:14:12.649Z,42.50
2022-12-11T17:16:40.458Z,41.00
2022-12-11T17:19:09.488Z,46.50
2022-12-11T17:21:37.434Z,47.70
2022-12-11T17:24:06.714Z,40.60
2022-12-11T17:26:34.888Z,43.60
2022-12-11T17:29:03.408Z,44.40
2022-12-11T17:31:31.290Z,41.30
2022-12-11T17:34:00.823Z,43.30
2022-12-11T17:36:28.948Z,41.30
2022-12-11T17:38:57.134Z,40.90
2022-12-11T17:41:25.218Z,42.70
2022-12-11T17:43:53.938Z,44.50
2022-12-11T17:46:23.060Z,42.70
2022-12-11T17:48:51.064Z,45.60
2022-12-11T17:51:24.535Z,48.80
2022-12-11T17:53:55.675Z,45.00
2022-12-11T17:56:24.648Z,50.10
2022-12-11T17:58:52.793Z,53.70
2022-12-11T18:01:20.746Z,51.90
2022-12-11T18:03:48.764Z,44.60
2022-12-11T18:06:17.633Z,39.20
2022-12-11T18:08:46.214Z,45.00
2022-12-11T18:11:19.206Z,38.10
2022-12-11T18:13:48.691Z,38.20
2022-12-11T18:16:24.541Z,44.90
2022-12-11T18:18:52.545Z,41.30
2022-12-11T18:21:25.433Z,38.60
2022-12-11T18:23:53.689Z,39.90
2022-12-11T18:26:22.048Z,42.10
2022-12-11T18:28:50.612Z,40.80
2022-12-11T18:31:19.581Z,42.10
2022-12-11T18:33:47.399Z,39.70
2022-12-11T18:36:18.303Z,38.40
2022-12-11T18:38:47.967Z,40.00
2022-12-11T18:41:17.119Z,48.70
2022-12-11T18:43:45.566Z,48.60
2022-12-11T18:46:19.166Z,41.00
2022-12-11T18:48:47.555Z,38.90
2022-12-11T18:51:19.218Z,44.00
2022-12-11T18:53:46.985Z,43.70
2022-12-11T18:56:16.975Z,43.40
2022-12-11T18:58:45.496Z,44.60
2022-12-11T19:01:20.045Z,58.00
2022-12-11T19:03:48.477Z,50.90
2022-12-11T19:06:18.813Z,40.70
2022-12-11T19:08:46.965Z,41.80
2022-12-11T19:11:20.042Z,42.20
2022-12-11T19:13:52.239Z,43.90
2022-12-11T19:16:23.550Z,51.40
2022-12-11T19:18:51.477Z,75.10
2022-12-11T19:21:19.501Z,60.80
2022-12-11T19:23:47.562Z,70.10
2022-12-11T19:26:22.665Z,71.90
2022-12-11T19:28:51.558Z,55.60
2022-12-11T19:31:21.804Z,43.10
2022-12-11T19:33:49.681Z,44.30
2022-12-11T19:36:20.858Z,43.10
2022-12-11T19:38:48.984Z,40.30
2022-12-11T19:41:22.302Z,40.30
2022-12-11T19:43:51.161Z,44.90
2022-12-11T19:46:19.218Z,46.60
2022-12-11T19:48:53.824Z,42.10
2022-12-11T19:51:24.883Z,49.60
2022-12-11T19:53:52.882Z,51.40
2022-12-11T19:56:20.848Z,48.60
2022-12-11T19:58:49.868Z,57.20
2022-12-11T20:01:30.993Z,50.00
2022-12-11T20:04:01.467Z,51.50
2022-12-11T20:06:31.331Z,48.90
2022-12-11T20:09:01.249Z,55.10
2022-12-11T20:11:29.099Z,70.90
2022-12-11T20:13:56.978Z,51.30
2022-12-11T20:16:46.268Z,52.70
2022-12-11T20:19:13.030Z,79.20
2022-12-11T20:21:41.070Z,65.50
2022-12-11T20:24:09.976Z,53.80
2022-12-11T20:26:40.070Z,53.40
2022-12-11T20:29:08.430Z,61.50
2022-12-11T20:31:36.890Z,80.20
2022-12-11T20:34:05.545Z,80.20
2022-12-11T20:36:34.046Z,77.70
2022-12-11T20:39:02.138Z,75.20
2022-12-11T20:41:29.876Z,77.40
2022-12-11T20:43:57.673Z,81.90
2022-12-11T20:46:27.296Z,55.70
2022-12-11T20:48:58.490Z,56.50
2022-12-11T20:51:28.010Z,58.10
2022-12-11T20:53:58.215Z,51.50
2022-12-11T20:56:28.528Z,56.00
2022-12-11T20:58:56.706Z,52.30
2022-12-11T21:01:26.269Z,49.30
2022-12-11T21:03:54.547Z,56.50
2022-12-11T21:06:25.347Z,49.30
2022-12-11T21:08:53.765Z,52.40
2022-12-11T21:11:21.849Z,50.50
2022-12-11T21:13:52.179Z,50.90
2022-12-11T21:16:21.307Z,47.00
2022-12-11T21:18:49.253Z,45.70
2022-12-11T21:21:17.872Z,49.40
2022-12-11T21:23:45.839Z,47.30
2022-12-11T21:26:13.777Z,47.50
2022-12-11T21:28:41.614Z,45.00
2022-12-11T21:31:12.552Z,46.90
2022-12-11T21:33:43.683Z,47.80
2022-12-11T21:36:13.092Z,45.50
2022-12-11T21:38:43.306Z,48.30
2022-12-11T21:41:14.178Z,45.00
2022-12-11T21:44:19.262Z,47.10
2022-12-11T21:46:31.373Z,50.50
2022-12-11T21:49:00.497Z,49.20
2022-12-11T21:51:35.946Z,49.90
2022-12-11T21:54:09.258Z,46.50
2022-12-11T21:56:38.013Z,44.20
2022-12-11T21:59:06.204Z,43.30
2022-12-11T22:01:40.992Z,40.60
2022-12-11T22:04:10.417Z,42.80
2022-12-11T22:06:42.023Z,41.40
2022-12-11T22:09:12.552Z,42.20
2022-12-11T22:11:42.095Z,42.70
2022-12-11T22:14:15.495Z,41.00
2022-12-11T22:16:44.060Z,40.50
2022-12-11T22:19:12.172Z,41.00
2022-12-11T22:21:39.984Z,41.90
2022-12-11T22:24:08.087Z,42.10
2022-12-11T22:26:35.865Z,41.30
2022-12-11T22:29:03.619Z,41.50
2022-12-11T22:31:31.419Z,40.10
2022-12-11T22:33:59.458Z,38.80
2022-12-11T22:36:28.506Z,37.80
2022-12-11T22:38:56.196Z,39.10
2022-12-11T22:41:27.012Z,38.20
2022-12-11T22:43:55.462Z,36.80
2022-12-11T22:46:26.353Z,36.60
2022-12-11T22:48:54.567Z,37.00
2022-12-11T22:51:22.922Z,36.50
2022-12-11T22:53:51.030Z,36.60
2022-12-11T22:56:18.811Z,35.40
2022-12-11T22:58:47.339Z,34.20
2022-12-11T23:01:17.947Z,33.40
2022-12-11T23:03:45.888Z,33.80
2022-12-11T23:06:16.081Z,34.70
2022-12-11T23:08:44.054Z,33.30
2022-12-11T23:11:17.603Z,34.30
2022-12-11T23:13:45.360Z,33.40
2022-12-11T23:16:13.629Z,33.80
2022-12-11T23:18:41.610Z,34.20
2022-12-11T23:21:11.008Z,33.80
2022-12-11T23:23:39.314Z,35.10
2022-12-11T23:26:09.754Z,36.00
2022-12-11T23:28:37.888Z,36.60
2022-12-11T23:31:05.958Z,36.90
2022-12-11T23:33:33.801Z,36.70
2022-12-11T23:36:01.829Z,37.20
2022-12-11T23:38:29.684Z,37.20
2022-12-11T23:41:00.214Z,35.80
2022-12-11T23:43:27.984Z,35.70
2022-12-11T23:45:55.781Z,36.30
2022-12-11T23:48:23.831Z,35.30
2022-12-11T23:50:52.010Z,37.10
2022-12-11T23:53:19.883Z,36.20
2022-12-11T23:55:47.746Z,34.60
2022-12-11T23:58:15.612Z,34.40
